Time;durP1;ratioP1;P1;durP2;ratioP2;P2;SDS_P1;SDS_P2;PMS_P1;PMS_P2;Temp;Humidity;BMP_temperature;BMP_pressure;BME280_temperature;BME280_humidity;BME280_pressure;Samples;Min_cycle;Max_cycle;Signal;HPM_P1;HPM_P2
2022/01/21 00:00:15;;;;;;;7.85;3.40;;;;;;;;;;6270672;22;20019;-61
2022/01/21 00:02:43;;;;;;;7.50;3.03;;;;;;;;;;6271205;22;20500;-61
2022/01/21 00:05:11;;;;;;;7.75;2.95;;;;;;;;;;6271696;22;20514;-61
2022/01/21 00:07:37;;;;;;;9.38;3.28;;;;;;;;;;6271210;22;20024;-60
2022/01/21 00:10:05;;;;;;;6.85;3.08;;;;;;;;;;6269791;22;20023;-60
2022/01/21 00:12:33;;;;;;;5.72;2.53;;;;;;;;;;6271738;22;20041;-61
2022/01/21 00:15:00;;;;;;;9.13;2.72;;;;;;;;;;6271233;22;20020;-59
2022/01/21 00:17:27;;;;;;;7.57;2.92;;;;;;;;;;6271247;22;20452;-61
2022/01/21 00:30:06;;;;;;;10.85;3.33;;;;;;;;;;6271575;22;20073;-60
2022/01/21 00:30:53;;;;;;;21.00;3.17;;;;;;;;;;6271107;22;20042;-60
2022/01/21 00:33:20;;;;;;;12.73;3.13;;;;;;;;;;6271298;22;20024;-58
2022/01/21 00:35:47;;;;;;;8.18;3.17;;;;;;;;;;6271931;22;20050;-59
2022/01/21 00:38:14;;;;;;;5.53;3.03;;;;;;;;;;6272008;22;20129;-61
2022/01/21 00:40:41;;;;;;;10.43;4.10;;;;;;;;;;6272985;22;20075;-59
2022/01/21 00:43:11;;;;;;;8.80;3.13;;;;;;;;;;6273636;22;20310;-61
2022/01/21 00:45:38;;;;;;;6.78;2.80;;;;;;;;;;6273793;22;20319;-61
2022/01/21 00:48:05;;;;;;;7.35;3.03;;;;;;;;;;6271940;22;20024;-61
2022/01/21 00:50:32;;;;;;;8.90;3.22;;;;;;;;;;6273174;22;20332;-61
2022/01/21 00:53:00;;;;;;;11.60;4.13;;;;;;;;;;6273072;22;20390;-59
2022/01/21 00:55:27;;;;;;;7.60;3.10;;;;;;;;;;6273616;22;20020;-61
2022/01/21 00:57:53;;;;;;;8.73;3.60;;;;;;;;;;6273744;22;20081;-60
2022/01/21 01:00:20;;;;;;;7.90;3.50;;;;;;;;;;6272136;22;20077;-61
2022/01/21 01:02:47;;;;;;;9.45;3.15;;;;;;;;;;6273787;22;20082;-61
2022/01/21 01:05:14;;;;;;;12.63;3.25;;;;;;;;;;6272742;22;20074;-61
2022/01/21 01:07:40;;;;;;;9.20;3.30;;;;;;;;;;6272530;22;20019;-61
2022/01/21 01:10:21;;;;;;;13.80;3.30;;;;;;;;;;6273172;22;20023;-61
2022/01/21 01:12:58;;;;;;;7.38;3.60;;;;;;;;;;6273491;22;20463;-60
2022/01/21 01:20:52;;;;;;;14.38;3.55;;;;;;;;;;6272751;22;20031;-61
2022/01/21 01:23:36;;;;;;;6.32;3.00;;;;;;;;;;6272523;22;20028;-61
2022/01/21 01:28:48;;;;;;;11.20;3.40;;;;;;;;;;6273119;22;20482;-61
2022/01/21 01:31:15;;;;;;;8.02;3.50;;;;;;;;;;6272981;22;20458;-60
2022/01/21 01:33:42;;;;;;;12.23;3.35;;;;;;;;;;6272039;22;20023;-61
2022/01/21 01:36:09;;;;;;;12.65;3.05;;;;;;;;;;6271072;22;20023;-61
2022/01/21 01:38:58;;;;;;;11.05;2.90;;;;;;;;;;6272983;22;20023;-61
2022/01/21 01:41:32;;;;;;;6.93;3.10;;;;;;;;;;6272349;22;20364;-61
2022/01/21 01:49:35;;;;;;;6.40;2.63;;;;;;;;;;6272345;22;20423;-61
2022/01/21 01:52:03;;;;;;;6.80;2.83;;;;;;;;;;6272050;22;20327;-61
2022/01/21 01:54:32;;;;;;;10.98;2.83;;;;;;;;;;6272235;22;20019;-61
2022/01/21 01:57:00;;;;;;;6.70;2.83;;;;;;;;;;6272987;22;20019;-61
2022/01/21 01:59:27;;;;;;;6.60;3.10;;;;;;;;;;6273119;22;20020;-61
2022/01/21 02:01:56;;;;;;;6.47;3.50;;;;;;;;;;6273083;22;20077;-61
2022/01/21 02:04:23;;;;;;;11.60;3.75;;;;;;;;;;6272033;22;20023;-61
2022/01/21 02:06:49;;;;;;;6.43;2.75;;;;;;;;;;6272340;22;20046;-61
2022/01/21 02:09:16;;;;;;;7.55;3.45;;;;;;;;;;6273368;22;20019;-61
2022/01/21 02:11:43;;;;;;;13.32;3.55;;;;;;;;;;6272904;22;20035;-61
2022/01/21 02:14:15;;;;;;;10.85;3.53;;;;;;;;;;6272383;22;20019;-61
2022/01/21 02:17:07;;;;;;;10.88;3.05;;;;;;;;;;6273120;22;20020;-61
2022/01/21 02:22:55;;;;;;;7.40;3.03;;;;;;;;;;6272325;22;20054;-61
2022/01/21 02:25:21;;;;;;;7.20;2.90;;;;;;;;;;6272026;22;20492;-60
2022/01/21 02:27:49;;;;;;;8.70;3.33;;;;;;;;;;6273225;22;20082;-60
2022/01/21 02:30:21;;;;;;;10.85;3.55;;;;;;;;;;6271489;22;20024;-61
2022/01/21 02:32:48;;;;;;;10.15;5.65;;;;;;;;;;6271277;22;20031;-61
2022/01/21 02:35:15;;;;;;;7.05;3.13;;;;;;;;;;6272085;22;20027;-61
2022/01/21 02:37:42;;;;;;;12.02;3.25;;;;;;;;;;6271540;22;20384;-60
2022/01/21 02:40:12;;;;;;;7.13;2.58;;;;;;;;;;6272227;22;20073;-62
2022/01/21 02:42:39;;;;;;;11.55;3.20;;;;;;;;;;6272855;22;20023;-61
2022/01/21 02:45:08;;;;;;;8.20;3.60;;;;;;;;;;6272066;22;20020;-61
2022/01/21 02:47:34;;;;;;;9.52;2.92;;;;;;;;;;6271553;22;20019;-61
2022/01/21 02:50:01;;;;;;;10.60;3.15;;;;;;;;;;6271317;22;20020;-60
2022/01/21 02:52:30;;;;;;;7.65;3.10;;;;;;;;;;6271810;22;20073;-61
2022/01/21 02:54:56;;;;;;;9.25;3.63;;;;;;;;;;6271919;22;20016;-61
2022/01/21 02:57:24;;;;;;;7.57;3.53;;;;;;;;;;6271993;22;20424;-61
2022/01/21 02:59:51;;;;;;;10.18;3.60;;;;;;;;;;6272092;22;20031;-59
2022/01/21 03:02:24;;;;;;;10.07;3.72;;;;;;;;;;6272050;22;20055;-60
2022/01/21 03:04:58;;;;;;;13.45;3.63;;;;;;;;;;6271767;22;20024;-61
2022/01/21 03:07:25;;;;;;;9.35;3.53;;;;;;;;;;6272387;22;20031;-60
2022/01/21 03:09:51;;;;;;;6.95;3.10;;;;;;;;;;6271837;22;20028;-61
2022/01/21 03:12:18;;;;;;;13.00;4.63;;;;;;;;;;6271674;22;20419;-61
2022/01/21 03:14:46;;;;;;;9.27;3.42;;;;;;;;;;6271843;22;20089;-60
2022/01/21 03:17:13;;;;;;;11.00;3.17;;;;;;;;;;6272354;22;20023;-61
2022/01/21 03:19:39;;;;;;;10.02;3.83;;;;;;;;;;6271815;22;20030;-61
2022/01/21 03:22:06;;;;;;;14.02;3.88;;;;;;;;;;6271755;22;20020;-61
2022/01/21 03:24:33;;;;;;;10.73;3.42;;;;;;;;;;6271970;22;20026;-61
2022/01/21 03:26:59;;;;;;;12.30;3.78;;;;;;;;;;6272013;22;20081;-61
2022/01/21 03:29:26;;;;;;;11.18;3.88;;;;;;;;;;6271943;22;20047;-60
2022/01/21 03:31:54;;;;;;;8.55;3.35;;;;;;;;;;6272113;22;20055;-59
2022/01/21 03:34:20;;;;;;;6.50;3.38;;;;;;;;;;6271750;22;20085;-59
2022/01/21 03:36:47;;;;;;;6.70;3.38;;;;;;;;;;6272193;22;20247;-59
2022/01/21 03:39:14;;;;;;;8.52;4.10;;;;;;;;;;6272060;22;20024;-60
2022/01/21 03:41:40;;;;;;;8.18;3.20;;;;;;;;;;6272304;22;20024;-60
2022/01/21 03:44:07;;;;;;;8.15;3.35;;;;;;;;;;6272169;22;20023;-59
2022/01/21 03:46:33;;;;;;;13.32;3.67;;;;;;;;;;6271302;22;20043;-59
2022/01/21 03:49:04;;;;;;;6.50;3.70;;;;;;;;;;6271956;22;20089;-61
2022/01/21 03:51:30;;;;;;;12.65;4.15;;;;;;;;;;6271229;22;20346;-60
2022/01/21 03:53:57;;;;;;;8.98;3.80;;;;;;;;;;6271396;22;20047;-59
2022/01/21 03:56:23;;;;;;;8.35;3.78;;;;;;;;;;6271383;22;20462;-60
2022/01/21 03:58:50;;;;;;;10.10;3.40;;;;;;;;;;6270740;22;20072;-58
2022/01/21 04:01:18;;;;;;;12.35;4.03;;;;;;;;;;6270825;22;20435;-61
2022/01/21 04:03:44;;;;;;;7.53;3.78;;;;;;;;;;6272249;22;20031;-61
2022/01/21 04:06:12;;;;;;;6.88;2.83;;;;;;;;;;6271566;22;20024;-60
2022/01/21 04:08:39;;;;;;;9.75;3.60;;;;;;;;;;6270970;22;20023;-61
2022/01/21 04:11:05;;;;;;;11.07;3.47;;;;;;;;;;6271959;22;20065;-59
2022/01/21 04:13:34;;;;;;;9.35;3.95;;;;;;;;;;6272625;22;20093;-59
2022/01/21 04:16:00;;;;;;;10.07;3.10;;;;;;;;;;6272585;22;20411;-61
2022/01/21 04:18:27;;;;;;;9.50;3.67;;;;;;;;;;6273013;22;20024;-61
2022/01/21 04:20:54;;;;;;;13.52;3.80;;;;;;;;;;6273889;22;20028;-61
2022/01/21 04:23:23;;;;;;;8.57;3.83;;;;;;;;;;6273555;22;20448;-61
2022/01/21 04:25:50;;;;;;;8.05;3.22;;;;;;;;;;6274174;22;20023;-60
2022/01/21 04:28:17;;;;;;;10.63;3.70;;;;;;;;;;6273522;22;20460;-60
2022/01/21 04:30:43;;;;;;;11.20;4.32;;;;;;;;;;6274351;22;20020;-61
2022/01/21 04:33:10;;;;;;;10.90;4.75;;;;;;;;;;6272603;22;20082;-58
2022/01/21 04:35:37;;;;;;;12.23;4.43;;;;;;;;;;6273624;22;20452;-61
2022/01/21 04:38:07;;;;;;;13.82;4.05;;;;;;;;;;6272039;22;20522;-58
2022/01/21 04:40:40;;;;;;;12.45;3.05;;;;;;;;;;6273000;22;20452;-61
2022/01/21 04:48:35;;;;;;;9.82;4.13;;;;;;;;;;6273504;22;20031;-61
2022/01/21 04:51:13;;;;;;;6.97;3.03;;;;;;;;;;6272408;22;20043;-58
2022/01/21 04:53:40;;;;;;;7.00;3.17;;;;;;;;;;6272304;22;20443;-61
2022/01/21 04:56:08;;;;;;;9.93;3.83;;;;;;;;;;6272900;22;20023;-59
2022/01/21 04:58:34;;;;;;;10.82;3.60;;;;;;;;;;6272885;22;20452;-60
2022/01/21 05:01:04;;;;;;;11.30;4.70;;;;;;;;;;6273398;22;20070;-61
2022/01/21 05:03:31;;;;;;;11.68;4.15;;;;;;;;;;6273322;22;20038;-61
2022/01/21 05:05:58;;;;;;;11.05;4.72;;;;;;;;;;6273248;22;20089;-61
2022/01/21 05:08:29;;;;;;;10.38;3.65;;;;;;;;;;6272062;22;20460;-61
2022/01/21 05:10:56;;;;;;;7.63;3.90;;;;;;;;;;6273471;22;20399;-61
2022/01/21 05:13:27;;;;;;;15.52;3.92;;;;;;;;;;6272791;22;20031;-60
2022/01/21 05:16:04;;;;;;;8.95;3.17;;;;;;;;;;6273484;22;20016;-60
2022/01/21 05:18:30;;;;;;;10.32;3.83;;;;;;;;;;6272807;22;20101;-61
2022/01/21 05:20:58;;;;;;;10.18;4.82;;;;;;;;;;6271929;22;20757;-59
2022/01/21 05:23:25;;;;;;;9.38;3.47;;;;;;;;;;6272017;22;20026;-60
2022/01/21 05:25:51;;;;;;;10.13;3.70;;;;;;;;;;6273061;22;20020;-59
2022/01/21 05:28:18;;;;;;;8.48;3.28;;;;;;;;;;6272645;22;20031;-59
2022/01/21 05:30:46;;;;;;;14.18;3.95;;;;;;;;;;6272337;22;20053;-59
2022/01/21 05:33:12;;;;;;;8.10;3.33;;;;;;;;;;6272115;22;20020;-57
2022/01/21 05:35:39;;;;;;;10.00;3.63;;;;;;;;;;6272621;22;20078;-59
2022/01/21 05:38:05;;;;;;;13.23;4.30;;;;;;;;;;6272220;22;20023;-59
2022/01/21 05:40:32;;;;;;;12.15;4.03;;;;;;;;;;6272963;22;20047;-61
2022/01/21 05:42:59;;;;;;;8.13;4.00;;;;;;;;;;6272246;22;20019;-59
2022/01/21 05:48:11;;;;;;;10.65;4.18;;;;;;;;;;6272487;22;20038;-60
2022/01/21 05:50:38;;;;;;;9.48;3.92;;;;;;;;;;6272804;22;20073;-60
2022/01/21 05:53:08;;;;;;;9.57;4.88;;;;;;;;;;6272199;22;20019;-61
2022/01/21 05:55:39;;;;;;;11.20;4.07;;;;;;;;;;6272351;22;20024;-60
2022/01/21 05:58:06;;;;;;;7.15;3.42;;;;;;;;;;6272499;22;20015;-61
2022/01/21 06:00:33;;;;;;;10.40;3.55;;;;;;;;;;6272623;22;20097;-58
2022/01/21 06:02:59;;;;;;;8.02;3.15;;;;;;;;;;6271775;22;20023;-61
2022/01/21 06:05:31;;;;;;;10.57;3.47;;;;;;;;;;6272002;22;20020;-61
2022/01/21 06:07:57;;;;;;;7.97;3.67;;;;;;;;;;6271715;22;20062;-58
2022/01/21 06:10:24;;;;;;;6.95;2.72;;;;;;;;;;6270972;22;20019;-62
2022/01/21 06:12:51;;;;;;;15.77;4.53;;;;;;;;;;6271220;22;20479;-62
2022/01/21 06:15:17;;;;;;;11.48;4.35;;;;;;;;;;6270169;22;20337;-62
2022/01/21 06:17:44;;;;;;;20.48;4.65;;;;;;;;;;6272233;22;20019;-61
2022/01/21 06:20:12;;;;;;;23.17;6.45;;;;;;;;;;6271179;22;20028;-62
2022/01/21 06:22:40;;;;;;;31.25;11.77;;;;;;;;;;6270789;22;20019;-63
2022/01/21 06:25:07;;;;;;;22.25;8.20;;;;;;;;;;6270966;22;20023;-62
2022/01/21 06:27:36;;;;;;;13.30;5.72;;;;;;;;;;6271317;22;20077;-62
2022/01/21 06:30:04;;;;;;;12.25;5.03;;;;;;;;;;6270100;22;20027;-62
2022/01/21 06:32:30;;;;;;;14.38;4.70;;;;;;;;;;6270031;22;20065;-62
2022/01/21 06:34:57;;;;;;;13.15;4.50;;;;;;;;;;6240842;23;20059;-62
2022/01/21 06:37:23;;;;;;;13.98;5.47;;;;;;;;;;6239985;23;20082;-62
2022/01/21 06:39:51;;;;;;;10.90;5.15;;;;;;;;;;6240155;23;20024;-62
2022/01/21 06:42:22;;;;;;;25.73;10.05;;;;;;;;;;6241312;23;20083;-62
2022/01/21 06:44:49;;;;;;;16.35;7.30;;;;;;;;;;6215581;23;20609;-62
2022/01/21 06:47:16;;;;;;;16.30;7.82;;;;;;;;;;6241173;23;20024;-62
2022/01/21 06:49:43;;;;;;;17.75;6.97;;;;;;;;;;6241586;23;20034;-62
2022/01/21 06:52:09;;;;;;;17.83;6.50;;;;;;;;;;6241883;23;20051;-62
2022/01/21 06:54:36;;;;;;;16.95;5.82;;;;;;;;;;6241802;23;20075;-62
2022/01/21 06:57:04;;;;;;;14.45;5.85;;;;;;;;;;6242609;23;20492;-62
2022/01/21 06:59:31;;;;;;;9.63;4.40;;;;;;;;;;6242407;23;20024;-60
2022/01/21 07:01:57;;;;;;;7.35;4.57;;;;;;;;;;6242327;23;20024;-62
2022/01/21 07:04:24;;;;;;;8.25;4.20;;;;;;;;;;6241866;23;20024;-62
2022/01/21 07:06:50;;;;;;;9.57;2.80;;;;;;;;;;6241995;23;20024;-62
2022/01/21 07:09:17;;;;;;;5.57;2.63;;;;;;;;;;6242656;23;20090;-62
2022/01/21 07:11:44;;;;;;;4.85;2.50;;;;;;;;;;6242442;23;20345;-62
2022/01/21 07:14:11;;;;;;;10.73;3.42;;;;;;;;;;6241887;23;20444;-62
2022/01/21 07:16:38;;;;;;;6.40;2.50;;;;;;;;;;6242950;23;20024;-62
2022/01/21 07:19:04;;;;;;;9.43;2.22;;;;;;;;;;6241646;23;20043;-63
2022/01/21 07:21:31;;;;;;;6.57;2.80;;;;;;;;;;6242727;23;20020;-62
2022/01/21 07:23:58;;;;;;;8.18;3.85;;;;;;;;;;6243007;23;20035;-62
2022/01/21 07:26:24;;;;;;;8.43;3.13;;;;;;;;;;6242873;23;20020;-62
2022/01/21 07:28:51;;;;;;;17.88;3.97;;;;;;;;;;6242813;23;20024;-59
2022/01/21 07:31:19;;;;;;;16.38;3.80;;;;;;;;;;6241748;23;20130;-60
2022/01/21 07:33:45;;;;;;;12.50;3.75;;;;;;;;;;6257940;22;20019;-59
2022/01/21 07:36:12;;;;;;;7.80;3.42;;;;;;;;;;6271955;22;20070;-60
2022/01/21 07:38:40;;;;;;;10.70;3.13;;;;;;;;;;6272374;22;20337;-61
2022/01/21 07:41:06;;;;;;;10.63;3.13;;;;;;;;;;6272489;22;20081;-62
2022/01/21 07:43:33;;;;;;;9.32;3.13;;;;;;;;;;6272519;22;20020;-62
2022/01/21 07:46:00;;;;;;;7.93;3.10;;;;;;;;;;6271929;22;20179;-62
2022/01/21 07:48:28;;;;;;;11.80;4.43;;;;;;;;;;6272416;22;20694;-56
2022/01/21 07:50:54;;;;;;;19.63;5.65;;;;;;;;;;6274396;22;20054;-57
2022/01/21 07:53:21;;;;;;;9.93;3.55;;;;;;;;;;6273897;22;20024;-59
2022/01/21 07:55:50;;;;;;;14.27;3.30;;;;;;;;;;6273861;22;20101;-60
2022/01/21 07:58:17;;;;;;;11.07;2.63;;;;;;;;;;6273943;22;20019;-60
2022/01/21 08:00:43;;;;;;;10.50;3.72;;;;;;;;;;6272701;22;20387;-60
2022/01/21 08:03:10;;;;;;;8.38;3.53;;;;;;;;;;6273318;22;20445;-60
2022/01/21 08:05:38;;;;;;;17.05;6.53;;;;;;;;;;6273090;22;20084;-60
2022/01/21 08:08:05;;;;;;;22.60;7.00;;;;;;;;;;6274017;22;20030;-60
2022/01/21 08:10:33;;;;;;;15.55;5.78;;;;;;;;;;6273948;22;20506;-59
2022/01/21 08:13:00;;;;;;;24.60;7.70;;;;;;;;;;6273130;22;20031;-59
2022/01/21 08:15:27;;;;;;;10.50;5.18;;;;;;;;;;6271678;22;20030;-60
2022/01/21 08:17:54;;;;;;;12.40;4.97;;;;;;;;;;6273730;22;20024;-61
2022/01/21 08:20:20;;;;;;;16.88;6.32;;;;;;;;;;6272353;22;20060;-60
2022/01/21 08:22:48;;;;;;;18.42;5.75;;;;;;;;;;6273930;22;20105;-60
2022/01/21 08:25:15;;;;;;;12.30;4.78;;;;;;;;;;6273650;22;20087;-60
2022/01/21 08:27:42;;;;;;;9.77;3.75;;;;;;;;;;6273208;22;20023;-60
2022/01/21 08:30:10;;;;;;;8.45;4.40;;;;;;;;;;6272893;22;20069;-60
2022/01/21 08:32:37;;;;;;;9.68;4.65;;;;;;;;;;6273991;22;20024;-60
2022/01/21 08:35:05;;;;;;;16.30;4.80;;;;;;;;;;6273258;22;20027;-60
2022/01/21 08:37:31;;;;;;;18.75;4.63;;;;;;;;;;6273648;22;20081;-60
2022/01/21 08:40:00;;;;;;;12.20;4.82;;;;;;;;;;6273167;22;20693;-60
2022/01/21 08:42:26;;;;;;;14.90;5.20;;;;;;;;;;6273541;22;20026;-60
2022/01/21 08:44:53;;;;;;;13.43;5.70;;;;;;;;;;6275456;22;20065;-60
2022/01/21 08:47:21;;;;;;;12.23;5.50;;;;;;;;;;6274401;22;20062;-60
2022/01/21 08:49:56;;;;;;;14.43;6.47;;;;;;;;;;6274490;22;20062;-61
2022/01/21 08:52:26;;;;;;;16.25;6.97;;;;;;;;;;6273924;22;20515;-59
2022/01/21 08:54:53;;;;;;;15.10;6.88;;;;;;;;;;6274194;22;20077;-60
2022/01/21 08:57:21;;;;;;;16.05;7.03;;;;;;;;;;6275042;22;20027;-60
2022/01/21 08:59:49;;;;;;;15.98;6.85;;;;;;;;;;6274317;22;20020;-60
2022/01/21 09:02:15;;;;;;;15.27;6.60;;;;;;;;;;6274882;22;20047;-61
2022/01/21 09:04:42;;;;;;;11.85;5.15;;;;;;;;;;6274838;22;20024;-61
2022/01/21 09:07:08;;;;;;;13.60;6.00;;;;;;;;;;6274866;22;20023;-59
2022/01/21 09:09:35;;;;;;;10.32;4.72;;;;;;;;;;6274557;22;20368;-61
2022/01/21 09:12:02;;;;;;;11.40;4.85;;;;;;;;;;6274377;22;20533;-61
2022/01/21 09:14:33;;;;;;;10.23;5.43;;;;;;;;;;6274325;22;20554;-61
2022/01/21 09:16:59;;;;;;;16.95;5.07;;;;;;;;;;6274815;22;20016;-61
2022/01/21 09:19:26;;;;;;;14.45;6.32;;;;;;;;;;6272659;22;20027;-61
2022/01/21 09:21:55;;;;;;;10.75;4.95;;;;;;;;;;6274387;22;20033;-60
2022/01/21 09:24:22;;;;;;;14.73;5.28;;;;;;;;;;6272935;22;20089;-61
2022/01/21 09:26:49;;;;;;;10.77;4.35;;;;;;;;;;6274351;22;20020;-62
2022/01/21 09:29:16;;;;;;;11.48;4.30;;;;;;;;;;6274017;22;20058;-61
2022/01/21 09:31:44;;;;;;;13.43;5.30;;;;;;;;;;6274559;22;20094;-61
2022/01/21 09:34:11;;;;;;;13.02;5.30;;;;;;;;;;6273576;22;20075;-61
2022/01/21 09:36:38;;;;;;;17.50;4.43;;;;;;;;;;6274261;22;20023;-61
2022/01/21 09:39:05;;;;;;;8.32;4.40;;;;;;;;;;6274031;22;20020;-61
2022/01/21 09:41:32;;;;;;;13.18;5.13;;;;;;;;;;6274587;22;20081;-59
2022/01/21 09:44:02;;;;;;;13.73;5.72;;;;;;;;;;6274301;22;20101;-61
2022/01/21 09:46:33;;;;;;;12.93;4.97;;;;;;;;;;6274098;22;20460;-61
2022/01/21 09:49:20;;;;;;;9.95;4.20;;;;;;;;;;6273428;22;20503;-60
2022/01/21 09:51:47;;;;;;;10.90;3.58;;;;;;;;;;6273696;22;20444;-59
2022/01/21 09:54:14;;;;;;;9.38;3.17;;;;;;;;;;6273772;22;20023;-61
2022/01/21 09:56:45;;;;;;;8.85;3.70;;;;;;;;;;6273842;22;20023;-60
2022/01/21 09:59:12;;;;;;;6.80;3.00;;;;;;;;;;6272824;22;20028;-59
2022/01/21 10:01:38;;;;;;;7.68;2.63;;;;;;;;;;6273306;22;20019;-61
2022/01/21 10:04:07;;;;;;;8.73;3.75;;;;;;;;;;6273137;22;20020;-61
2022/01/21 10:06:35;;;;;;;8.98;3.00;;;;;;;;;;6273499;22;20031;-60
2022/01/21 10:09:03;;;;;;;7.88;2.92;;;;;;;;;;6273610;22;20026;-61
2022/01/21 10:11:29;;;;;;;11.80;3.75;;;;;;;;;;6273629;22;20414;-61
2022/01/21 10:13:56;;;;;;;12.38;3.67;;;;;;;;;;6274308;22;20020;-61
2022/01/21 10:16:22;;;;;;;11.07;3.92;;;;;;;;;;6273627;22;20101;-61
2022/01/21 10:19:04;;;;;;;10.75;3.15;;;;;;;;;;6273711;22;20020;-62
2022/01/21 10:21:33;;;;;;;10.98;2.95;;;;;;;;;;6273275;22;20336;-61
2022/01/21 10:24:07;;;;;;;9.57;3.10;;;;;;;;;;6273559;22;20101;-61
2022/01/21 10:26:35;;;;;;;5.65;2.15;;;;;;;;;;6273400;22;20383;-61
2022/01/21 10:29:02;;;;;;;6.90;2.25;;;;;;;;;;6273554;22;20439;-61
2022/01/21 10:31:30;;;;;;;7.25;2.10;;;;;;;;;;6273537;22;20019;-61
2022/01/21 10:33:59;;;;;;;10.68;1.90;;;;;;;;;;6272510;22;20448;-60
2022/01/21 10:36:28;;;;;;;5.88;2.15;;;;;;;;;;6272892;22;20016;-61
2022/01/21 10:39:06;;;;;;;9.38;2.70;;;;;;;;;;6272399;22;20016;-61
2022/01/21 10:41:35;;;;;;;8.30;2.67;;;;;;;;;;6272031;22;20058;-61
2022/01/21 10:44:07;;;;;;;11.35;3.00;;;;;;;;;;6273793;22;20397;-61
2022/01/21 10:46:34;;;;;;;9.90;3.47;;;;;;;;;;6273435;22;20027;-61
2022/01/21 10:49:03;;;;;;;6.50;2.70;;;;;;;;;;6273139;22;20047;-61
2022/01/21 10:51:31;;;;;;;7.00;2.30;;;;;;;;;;6273467;22;20020;-60
2022/01/21 10:54:12;;;;;;;11.73;1.90;;;;;;;;;;6272919;22;20023;-61
2022/01/21 10:56:39;;;;;;;11.00;2.97;;;;;;;;;;6273855;22;20023;-61
2022/01/21 10:59:06;;;;;;;4.70;1.88;;;;;;;;;;6274009;22;20027;-61
2022/01/21 11:01:32;;;;;;;7.90;3.72;;;;;;;;;;6273743;22;20016;-60
2022/01/21 11:04:05;;;;;;;10.60;3.03;;;;;;;;;;6273113;22;20436;-61
2022/01/21 11:06:39;;;;;;;14.95;5.82;;;;;;;;;;6273909;22;20028;-62
2022/01/21 11:09:15;;;;;;;9.30;3.17;;;;;;;;;;6272864;22;20379;-62
2022/01/21 11:11:42;;;;;;;6.78;2.38;;;;;;;;;;6273886;22;20110;-62
2022/01/21 11:14:13;;;;;;;5.28;2.28;;;;;;;;;;6273342;22;20547;-61
2022/01/21 11:16:42;;;;;;;4.57;2.17;;;;;;;;;;6273024;22;20081;-62
2022/01/21 11:19:11;;;;;;;10.73;3.13;;;;;;;;;;6273219;22;20090;-60
2022/01/21 11:21:40;;;;;;;10.77;2.97;;;;;;;;;;6272557;22;20459;-61
2022/01/21 11:24:08;;;;;;;8.82;2.95;;;;;;;;;;6273266;22;20019;-61
2022/01/21 11:26:36;;;;;;;9.45;2.95;;;;;;;;;;6273488;22;20027;-62
2022/01/21 11:29:04;;;;;;;7.13;3.13;;;;;;;;;;6272889;22;20130;-59
2022/01/21 11:31:31;;;;;;;10.25;3.45;;;;;;;;;;6273245;22;20019;-61
2022/01/21 11:33:58;;;;;;;11.52;2.53;;;;;;;;;;6272681;22;20585;-60
2022/01/21 11:36:25;;;;;;;6.65;2.58;;;;;;;;;;6273575;22;20023;-61
2022/01/21 11:38:55;;;;;;;8.32;2.00;;;;;;;;;;6273127;22;20068;-61
2022/01/21 11:41:24;;;;;;;8.98;2.75;;;;;;;;;;6273386;22;20027;-61
2022/01/21 11:43:58;;;;;;;11.43;2.95;;;;;;;;;;6273287;22;20085;-61
2022/01/21 11:46:39;;;;;;;8.30;2.97;;;;;;;;;;6273786;22;20020;-61
2022/01/21 11:49:09;;;;;;;4.93;2.53;;;;;;;;;;6273726;22;20024;-61
2022/01/21 11:51:38;;;;;;;4.82;2.40;;;;;;;;;;6273497;22;20019;-61
2022/01/21 11:54:06;;;;;;;7.15;2.05;;;;;;;;;;6272964;22;20077;-61
2022/01/21 11:56:42;;;;;;;10.32;2.80;;;;;;;;;;6273497;22;20309;-61
2022/01/21 11:59:15;;;;;;;8.30;2.53;;;;;;;;;;6273436;22;20020;-62
2022/01/21 12:01:47;;;;;;;8.07;2.28;;;;;;;;;;6272995;22;20023;-61
2022/01/21 12:04:15;;;;;;;6.03;2.20;;;;;;;;;;6270937;22;20030;-62
2022/01/21 12:06:42;;;;;;;8.55;3.13;;;;;;;;;;6272700;22;20051;-62
2022/01/21 12:09:10;;;;;;;11.02;3.35;;;;;;;;;;6272285;22;20020;-61
2022/01/21 12:11:38;;;;;;;6.80;2.58;;;;;;;;;;6273538;22;20384;-61
2022/01/21 12:14:49;;;;;;;8.23;3.55;;;;;;;;;;6273322;22;20016;-61
2022/01/21 12:17:40;;;;;;;7.40;2.75;;;;;;;;;;6272699;22;20026;-61
2022/01/21 12:20:08;;;;;;;14.02;3.17;;;;;;;;;;6272792;22;20015;-61
2022/01/21 12:22:35;;;;;;;5.47;1.70;;;;;;;;;;6272513;22;20020;-61
2022/01/21 12:25:08;;;;;;;8.05;2.90;;;;;;;;;;6272427;22;20019;-60
2022/01/21 12:27:36;;;;;;;6.95;1.92;;;;;;;;;;6271113;22;20039;-61
2022/01/21 12:30:26;;;;;;;5.13;2.05;;;;;;;;;;6273641;22;20082;-61
2022/01/21 12:32:58;;;;;;;8.50;2.85;;;;;;;;;;6273100;22;20486;-61
2022/01/21 12:35:24;;;;;;;8.10;2.20;;;;;;;;;;6274087;22;20024;-61
2022/01/21 12:41:30;;;;;;;7.13;1.90;;;;;;;;;;6274166;22;20030;-61
2022/01/21 12:43:58;;;;;;;6.47;1.90;;;;;;;;;;6273698;22;20334;-61
2022/01/21 12:46:34;;;;;;;9.15;2.38;;;;;;;;;;6274033;22;20027;-61
2022/01/21 12:49:23;;;;;;;10.25;3.13;;;;;;;;;;6273259;22;20090;-61
2022/01/21 12:52:10;;;;;;;8.50;2.58;;;;;;;;;;6272859;22;20073;-62
2022/01/21 12:57:23;;;;;;;;;;;;;;;;;;6274979;22;20122;-60
2022/01/21 12:59:55;;;;;;;6.32;3.03;;;;;;;;;;6273581;22;20398;-60
2022/01/21 13:02:26;;;;;;;7.50;2.70;;;;;;;;;;6274685;22;20055;-59
2022/01/21 13:05:04;;;;;;;6.20;2.30;;;;;;;;;;6274648;22;20027;-61
2022/01/21 13:07:35;;;;;;;10.63;2.65;;;;;;;;;;6273080;22;20047;-60
2022/01/21 13:10:07;;;;;;;9.48;1.95;;;;;;;;;;6272847;22;20487;-60
2022/01/21 13:12:46;;;;;;;6.10;2.28;;;;;;;;;;6273203;22;20028;-60
2022/01/21 13:15:14;;;;;;;5.53;1.92;;;;;;;;;;6273187;22;20131;-58
2022/01/21 13:17:41;;;;;;;9.00;2.78;;;;;;;;;;6273528;22;20027;-61
2022/01/21 13:20:10;;;;;;;8.23;2.00;;;;;;;;;;6273195;22;20026;-61
2022/01/21 13:22:36;;;;;;;7.93;1.90;;;;;;;;;;6273109;22;20020;-61
2022/01/21 13:25:08;;;;;;;5.05;1.65;;;;;;;;;;6273372;22;20031;-60
2022/01/21 13:27:37;;;;;;;4.72;2.00;;;;;;;;;;6273045;22;20020;-61
2022/01/21 13:30:06;;;;;;;9.02;1.92;;;;;;;;;;6271079;22;20043;-61
2022/01/21 13:32:33;;;;;;;4.35;1.58;;;;;;;;;;6274139;22;20023;-61
2022/01/21 13:35:12;;;;;;;18.27;2.30;;;;;;;;;;6272217;22;20077;-61
2022/01/21 13:37:40;;;;;;;6.95;2.03;;;;;;;;;;6271603;22;20055;-61
2022/01/21 13:40:09;;;;;;;8.15;2.00;;;;;;;;;;6272267;22;20388;-61
2022/01/21 13:42:42;;;;;;;9.00;3.15;;;;;;;;;;6272884;22;20023;-67
2022/01/21 13:45:11;;;;;;;6.88;1.80;;;;;;;;;;6273293;22;20023;-61
2022/01/21 13:47:40;;;;;;;5.95;1.88;;;;;;;;;;6272419;22;20464;-60
2022/01/21 13:50:13;;;;;;;5.07;1.90;;;;;;;;;;6272779;22;20031;-60
2022/01/21 13:52:47;;;;;;;6.63;2.25;;;;;;;;;;6273228;22;20026;-61
2022/01/21 13:55:26;;;;;;;7.38;2.50;;;;;;;;;;6273445;22;20030;-58
2022/01/21 13:57:54;;;;;;;7.82;2.30;;;;;;;;;;6273665;22;20395;-60
2022/01/21 14:00:29;;;;;;;5.05;3.13;;;;;;;;;;6272758;22;20054;-60
2022/01/21 14:03:09;;;;;;;9.05;2.42;;;;;;;;;;6273150;22;20022;-59
2022/01/21 14:05:49;;;;;;;8.32;2.25;;;;;;;;;;6272869;22;20027;-59
2022/01/21 14:08:18;;;;;;;7.07;2.72;;;;;;;;;;6272851;22;20094;-59
2022/01/21 14:10:45;;;;;;;7.43;2.15;;;;;;;;;;6272599;22;20088;-59
2022/01/21 14:13:12;;;;;;;6.85;2.22;;;;;;;;;;6272469;22;20405;-63
2022/01/21 14:15:39;;;;;;;7.50;2.33;;;;;;;;;;6272848;22;20068;-61
2022/01/21 14:18:06;;;;;;;8.32;2.63;;;;;;;;;;6272760;22;20024;-61
2022/01/21 14:20:35;;;;;;;7.25;2.95;;;;;;;;;;6273314;22;20391;-61
2022/01/21 14:23:04;;;;;;;6.00;2.35;;;;;;;;;;6273324;22;20022;-61
2022/01/21 14:25:30;;;;;;;7.18;2.60;;;;;;;;;;6272610;22;20019;-60
2022/01/21 14:27:57;;;;;;;5.20;2.05;;;;;;;;;;6272511;22;20020;-61
2022/01/21 14:30:24;;;;;;;5.57;2.10;;;;;;;;;;6269736;22;20032;-60
2022/01/21 14:32:51;;;;;;;6.88;2.50;;;;;;;;;;6273070;22;20023;-61
2022/01/21 14:35:25;;;;;;;7.03;2.55;;;;;;;;;;6272958;22;20031;-61
2022/01/21 14:37:53;;;;;;;6.85;2.30;;;;;;;;;;6273067;22;20016;-60
2022/01/21 14:40:25;;;;;;;5.78;2.20;;;;;;;;;;6273057;22;20016;-61
2022/01/21 14:43:02;;;;;;;10.10;2.78;;;;;;;;;;6272856;22;20027;-60
2022/01/21 14:45:29;;;;;;;6.25;3.00;;;;;;;;;;6272997;22;20092;-61
2022/01/21 14:47:55;;;;;;;4.70;2.22;;;;;;;;;;6273197;22;20020;-61
2022/01/21 14:50:24;;;;;;;5.75;2.25;;;;;;;;;;6271927;22;20024;-61
2022/01/21 14:52:53;;;;;;;9.80;2.92;;;;;;;;;;6271012;22;20060;-61
2022/01/21 14:55:22;;;;;;;9.13;2.70;;;;;;;;;;6273205;22;20024;-61
2022/01/21 14:57:53;;;;;;;13.23;5.07;;;;;;;;;;6273254;22;20031;-61
2022/01/21 15:00:26;;;;;;;7.43;2.92;;;;;;;;;;6269658;22;20020;-60
2022/01/21 15:03:04;;;;;;;5.75;2.45;;;;;;;;;;6271830;22;20451;-61
2022/01/21 15:05:31;;;;;;;14.00;4.63;;;;;;;;;;6272480;22;20019;-61
2022/01/21 15:07:58;;;;;;;7.93;3.42;;;;;;;;;;6272091;22;20113;-61
2022/01/21 15:10:34;;;;;;;6.10;2.90;;;;;;;;;;6272136;22;20460;-61
2022/01/21 15:16:08;;;;;;;7.35;3.08;;;;;;;;;;6272045;22;20112;-61
2022/01/21 15:18:35;;;;;;;7.85;3.53;;;;;;;;;;6272345;22;20020;-61
2022/01/21 15:21:01;;;;;;;7.90;3.10;;;;;;;;;;6272129;22;20020;-60
2022/01/21 15:23:28;;;;;;;9.00;2.90;;;;;;;;;;6271895;22;20066;-61
2022/01/21 15:25:55;;;;;;;7.50;2.80;;;;;;;;;;6271882;22;20522;-60
2022/01/21 15:28:23;;;;;;;9.93;3.10;;;;;;;;;;6272198;22;20019;-60
2022/01/21 15:30:49;;;;;;;8.30;3.35;;;;;;;;;;6269657;22;20529;-60